createdAt,value
2019-05-22T00:03:34.083Z,0.00
2019-05-22T00:18:34.201Z,0.00
2019-05-22T00:33:36.312Z,0.00
2019-05-22T00:48:36.570Z,0.00
2019-05-22T01:03:36.871Z,0.00
2019-05-22T01:18:37.073Z,0.00
2019-05-22T01:33:37.175Z,0.00
2019-05-22T01:48:37.291Z,0.00
2019-05-22T02:03:37.511Z,0.00
2019-05-22T02:18:37.660Z,0.00
2019-05-22T02:33:37.811Z,4.00
2019-05-22T02:48:42.105Z,8.00
2019-05-22T03:03:43.155Z,20.00
2019-05-22T03:18:43.440Z,48.00
2019-05-22T03:33:44.065Z,96.00
2019-05-22T03:48:44.216Z,176.00
2019-05-22T04:03:44.819Z,348.00
2019-05-22T04:18:45.004Z,380.00
2019-05-22T04:33:45.238Z,668.00
2019-05-22T04:48:46.346Z,760.00
2019-05-22T05:03:46.563Z,828.00
2019-05-22T05:18:46.670Z,804.00
2019-05-22T05:33:46.858Z,1048.00
2019-05-22T05:48:47.175Z,1092.00
2019-05-22T06:03:47.414Z,1572.00
2019-05-22T06:18:47.510Z,2324.00
2019-05-22T06:33:47.704Z,2632.00
2019-05-22T06:48:47.902Z,3180.00
2019-05-22T07:03:48.120Z,3576.00
2019-05-22T07:18:48.351Z,4244.00
2019-05-22T07:33:49.795Z,4512.00
2019-05-22T07:48:50.001Z,3612.00
2019-05-22T08:03:50.150Z,3168.00
2019-05-22T08:18:50.294Z,2804.00
2019-05-22T08:33:50.417Z,3476.00
2019-05-22T08:48:50.623Z,4596.00
2019-05-22T09:03:50.775Z,5268.00
2019-05-22T09:18:50.854Z,5400.00
2019-05-22T09:33:51.051Z,5080.00
2019-05-22T09:48:51.147Z,5472.00
2019-05-22T10:03:51.236Z,4280.00
2019-05-22T10:18:53.396Z,4140.00
2019-05-22T10:33:53.708Z,3932.00
2019-05-22T10:48:53.940Z,5836.00
2019-05-22T11:03:54.142Z,4620.00
2019-05-22T11:18:54.245Z,5776.00
2019-05-22T11:33:54.453Z,4504.00
2019-05-22T11:48:54.576Z,4484.00
2019-05-22T12:03:54.751Z,4956.00
2019-05-22T12:18:58.442Z,3284.00
2019-05-22T12:33:59.025Z,2776.00
2019-05-22T12:49:00.219Z,2700.00
2019-05-22T13:04:00.408Z,3128.00
2019-05-22T13:19:01.120Z,3284.00
2019-05-22T13:34:01.311Z,2504.00
2019-05-22T13:49:01.375Z,3224.00
2019-05-22T14:04:01.591Z,3000.00
2019-05-22T14:19:01.900Z,2648.00
2019-05-22T14:34:01.958Z,2260.00
2019-05-22T14:49:02.621Z,1988.00
2019-05-22T15:04:02.768Z,2020.00
2019-05-22T15:19:02.907Z,1420.00
2019-05-22T15:34:03.139Z,1668.00
2019-05-22T15:49:03.337Z,1276.00
2019-05-22T16:04:03.518Z,1044.00
2019-05-22T16:19:03.673Z,1100.00
2019-05-22T16:34:03.889Z,1392.00
2019-05-22T16:49:04.000Z,1568.00
2019-05-22T17:04:04.651Z,1160.00
2019-05-22T17:19:25.284Z,692.00
2019-05-22T17:34:10.461Z,588.00
2019-05-22T17:49:11.093Z,960.00
2019-05-22T18:04:12.075Z,416.00
2019-05-22T18:19:12.421Z,248.00
2019-05-22T18:34:12.706Z,348.00
2019-05-22T18:49:12.921Z,268.00
2019-05-22T19:04:13.229Z,96.00
2019-05-22T19:19:13.468Z,24.00
2019-05-22T19:34:13.636Z,4.00
2019-05-22T19:49:13.767Z,0.00
2019-05-22T20:04:13.990Z,0.00
2019-05-22T20:19:14.090Z,0.00
2019-05-22T20:34:14.289Z,0.00
2019-05-22T20:49:14.477Z,0.00
2019-05-22T21:04:14.619Z,0.00
2019-05-22T21:19:14.808Z,0.00
2019-05-22T21:34:14.934Z,0.00
2019-05-22T21:49:15.141Z,0.00
2019-05-22T22:04:15.316Z,0.00
2019-05-22T22:19:15.481Z,0.00
2019-05-22T22:34:15.612Z,0.00
2019-05-22T22:49:16.735Z,0.00
2019-05-22T23:04:16.919Z,0.00
2019-05-22T23:19:18.066Z,0.00
2019-05-22T23:34:18.198Z,0.00
2019-05-22T23:49:18.371Z,0.00
